Time;durP1;ratioP1;P1;durP2;ratioP2;P2;SDS_P1;SDS_P2;PMS_P1;PMS_P2;Temp;Humidity;BMP_temperature;BMP_pressure;BME280_temperature;BME280_humidity;BME280_pressure;Samples;Min_cycle;Max_cycle;Signal;HPM_P1;HPM_P2
2021/05/06 00:07:07;;;;;;;3.08;2.78;;;;;;;;;;5063130;28;20205;-71
2021/05/06 00:33:40;;;;;;;3.13;2.58;;;;;;;;;;5063198;28;20222;-72
2021/05/06 00:36:06;;;;;;;2.77;2.20;;;;;;;;;;5061483;28;20585;-71
2021/05/06 00:38:42;;;;;;;3.92;3.03;;;;;;;;;;5061958;28;20429;-72
2021/05/06 00:43:56;;;;;;;4.10;2.10;;;;;;;;;;5063452;28;20257;-71
2021/05/06 00:54:29;;;;;;;5.32;2.45;;;5.70;41.50;;;;;;5062661;28;20257;-69
2021/05/06 00:57:12;;;;;;;2.40;2.20;;;5.70;41.40;;;;;;5061453;28;20188;-70
2021/05/06 00:59:57;;;;;;;2.88;2.40;;;5.70;40.50;;;;;;5062959;28;20174;-71
2021/05/06 01:05:21;;;;;;;3.95;2.40;;;5.70;40.70;;;;;;5063217;28;20202;-70
2021/05/06 01:13:12;;;;;;;2.20;2.00;;;5.60;43.00;;;;;;5067465;28;20178;-70
2021/05/06 01:15:38;;;;;;;9.02;2.40;;;5.50;43.60;;;;;;5066044;28;20170;-71
2021/05/06 01:18:04;;;;;;;4.27;2.50;;;5.40;44.70;;;;;;5065739;28;20179;-70
2021/05/06 01:20:29;;;;;;;2.63;1.93;;;5.30;45.20;;;;;;5063138;28;20186;-70
2021/05/06 01:22:55;;;;;;;2.90;2.60;;;5.40;45.80;;;;;;5063947;28;20228;-71
2021/05/06 01:25:21;;;;;;;2.47;2.20;;;5.30;46.00;;;;;;5063335;28;20203;-73
2021/05/06 01:28:01;;;;;;;4.40;2.80;;;5.40;45.90;;;;;;5062391;28;20182;-71
2021/05/06 01:30:35;;;;;;;3.85;2.40;;;5.40;46.00;;;;;;5063356;28;20183;-71
2021/05/06 01:33:07;;;;;;;3.95;3.17;;;5.30;45.50;;;;;;5063321;28;20537;-71
2021/05/06 01:35:40;;;;;;;2.67;2.30;;;5.30;45.50;;;;;;5064321;28;20175;-71
2021/05/06 01:38:26;;;;;;;3.35;1.88;;;5.30;45.30;;;;;;5065475;28;20194;-70
2021/05/06 01:46:18;;;;;;;2.53;1.90;;;5.30;44.80;;;;;;5064398;28;20242;-70
2021/05/06 01:59:46;;;;;;;2.67;2.00;;;5.60;43.70;;;;;;5062598;28;20185;-70
2021/05/06 02:02:11;;;;;;;2.70;2.28;;;5.60;43.40;;;;;;5061017;28;20575;-71
2021/05/06 02:04:37;;;;;;;3.43;1.90;;;5.60;43.70;;;;;;5061462;28;20213;-71
2021/05/06 02:07:02;;;;;;;5.97;2.40;;;5.70;43.80;;;;;;5061537;28;20264;-68
2021/05/06 02:09:28;;;;;;;3.90;2.43;;;5.80;43.80;;;;;;5060759;28;20205;-70
2021/05/06 02:11:54;;;;;;;3.07;2.40;;;5.90;43.70;;;;;;5060794;28;20201;-71
2021/05/06 02:14:19;;;;;;;3.03;2.50;;;5.90;43.60;;;;;;5061001;28;20199;-71
2021/05/06 02:16:45;;;;;;;3.10;1.90;;;6.00;50.30;;;;;;5061689;28;20748;-71
2021/05/06 02:19:10;;;;;;;3.33;2.30;;;6.10;50.00;;;;;;5061863;28;20179;-72
2021/05/06 02:21:36;;;;;;;5.97;2.60;;;6.10;49.10;;;;;;5062135;28;20183;-71
2021/05/06 02:24:02;;;;;;;3.70;2.97;;;6.10;49.20;;;;;;5064556;28;20207;-70
2021/05/06 02:26:27;;;;;;;2.33;2.13;;;6.20;47.40;;;;;;5063448;28;20174;-70
2021/05/06 02:28:53;;;;;;;2.30;2.10;;;6.20;45.60;;;;;;5063473;28;20457;-70
2021/05/06 02:31:19;;;;;;;2.43;2.23;;;6.20;46.40;;;;;;5063868;28;20201;-70
2021/05/06 02:33:45;;;;;;;3.85;2.45;;;6.20;47.10;;;;;;5063906;28;20317;-70
2021/05/06 02:36:11;;;;;;;3.85;2.30;;;6.10;48.70;;;;;;5063411;28;20224;-71
2021/05/06 02:38:37;;;;;;;2.70;2.20;;;6.00;49.00;;;;;;5062643;28;20190;-71
2021/05/06 02:41:03;;;;;;;3.88;2.13;;;5.90;49.20;;;;;;5063676;28;20420;-71
2021/05/06 02:43:29;;;;;;;3.13;2.13;;;5.90;50.10;;;;;;5064594;28;20219;-70
2021/05/06 02:45:54;;;;;;;4.27;2.23;;;5.80;50.10;;;;;;5051166;28;20426;-70
2021/05/06 02:48:20;;;;;;;4.33;2.17;;;5.80;50.50;;;;;;5050959;28;20203;-70
2021/05/06 02:50:51;;;;;;;3.57;2.40;;;5.70;51.40;;;;;;5050798;28;20179;-70
2021/05/06 02:53:19;;;;;;;2.30;1.90;;;5.60;50.90;;;;;;5051007;28;20174;-70
2021/05/06 03:03:45;;;;;;;3.63;2.58;;;5.10;53.50;;;;;;5051285;28;20698;-70
2021/05/06 03:06:19;;;;;;;2.88;1.95;;;5.10;54.30;;;;;;5051190;28;20178;-69
2021/05/06 03:08:48;;;;;;;4.03;2.80;;;4.90;54.10;;;;;;5052677;28;20205;-70
2021/05/06 03:11:34;;;;;;;3.28;2.22;;;4.90;55.50;;;;;;5049764;28;20175;-70
2021/05/06 03:24:30;;;;;;;5.17;2.67;;;4.60;56.70;;;;;;5050671;28;20571;-70
2021/05/06 03:26:56;;;;;;;4.60;2.78;;;4.70;57.40;;;;;;5051645;28;20188;-70
2021/05/06 03:29:42;;;;;;;3.47;2.00;;;4.70;57.40;;;;;;5050505;28;20623;-69
2021/05/06 03:43:02;;;;;;;2.70;2.00;;;;;;;;;;5050889;28;20243;-69
2021/05/06 03:45:59;;;;;;;5.63;2.03;;;5.10;45.70;;;;;;5050675;28;20256;-69
2021/05/06 04:03:18;;;;;;;2.60;1.85;;;5.10;46.10;;;;;;5050423;28;20563;-70
2021/05/06 04:14:33;;;;;;;3.97;2.45;;;5.60;44.10;;;;;;5054385;28;20592;-70
2021/05/06 04:18:49;;;;;;;3.17;2.20;;;5.60;43.70;;;;;;5054282;28;20174;-70
2021/05/06 04:21:40;;;;;;;3.50;1.95;;;5.70;43.70;;;;;;5054213;28;20186;-70
2021/05/06 04:37:41;;;;;;;3.85;2.90;;;6.00;42.30;;;;;;5053743;28;20547;-71
2021/05/06 04:53:37;;;;;;;2.40;1.85;;;7.00;39.80;;;;;;5053389;28;20410;-71
2021/05/06 05:04:23;;;;;;;5.27;2.63;;;7.70;36.00;;;;;;5053476;28;20792;-71
2021/05/06 05:06:55;;;;;;;4.03;2.13;;;7.90;35.40;;;;;;5053829;28;20764;-70
2021/05/06 05:12:06;;;;;;;5.60;2.23;;;8.30;35.00;;;;;;5053114;28;20898;-70
2021/05/06 05:14:39;;;;;;;3.10;2.53;;;8.70;33.70;;;;;;5053579;28;20925;-70
2021/05/06 05:27:48;;;;;;;4.53;2.93;;;10.50;29.00;;;;;;5052813;28;20926;-71
2021/05/06 05:30:15;;;;;;;5.27;2.90;;;11.50;26.70;;;;;;5033672;28;20476;-71
2021/05/06 05:32:40;;;;;;;3.70;2.80;;;12.10;23.20;;;;;;5031788;28;20178;-72
2021/05/06 05:35:15;;;;;;;14.80;3.73;;;11.90;21.80;;;;;;5038627;28;20431;-72
2021/05/06 05:37:51;;;;;;;2.70;2.50;;;11.40;22.50;;;;;;5052694;28;20167;-72
2021/05/06 05:40:37;;;;;;;5.63;3.00;;;10.80;23.10;;;;;;5052289;28;20836;-72
2021/05/06 05:55:59;;;;;;;3.63;2.70;;;9.20;28.60;;;;;;5032781;28;20903;-71
2021/05/06 05:58:25;;;;;;;4.03;2.50;;;9.00;27.10;;;;;;5033711;28;20426;-72
2021/05/06 06:00:51;;;;;;;3.10;2.13;;;9.00;27.60;;;;;;5032079;28;20191;-72
2021/05/06 06:03:16;;;;;;;4.77;2.87;;;8.90;26.50;;;;;;5032330;28;20768;-71
2021/05/06 06:05:42;;;;;;;5.13;3.27;;;8.90;27.50;;;;;;5032184;28;20190;-72
2021/05/06 06:08:08;;;;;;;5.23;2.40;;;9.00;28.60;;;;;;5037281;28;20334;-72
2021/05/06 06:10:34;;;;;;;7.73;2.73;;;9.10;27.30;;;;;;5050154;28;20179;-71
2021/05/06 06:12:59;;;;;;;7.83;3.13;;;9.30;27.70;;;;;;5052051;28;20501;-71
2021/05/06 06:18:17;;;;;;;3.80;2.70;;;10.20;26.90;;;;;;5052254;28;20272;-70
2021/05/06 06:20:46;;;;;;;9.17;3.80;;;11.00;23.90;;;;;;5036407;28;20437;-71
2021/05/06 06:23:11;;;;;;;4.53;2.80;;;11.30;22.50;;;;;;5031813;28;20422;-72
2021/05/06 06:25:37;;;;;;;3.70;2.93;;;11.20;23.20;;;;;;5031889;28;20404;-72
2021/05/06 06:28:08;;;;;;;5.40;2.83;;;11.10;21.90;;;;;;5031873;28;20656;-72
2021/05/06 06:30:35;;;;;;;5.57;3.30;;;11.10;23.10;;;;;;5030231;28;20187;-71
2021/05/06 06:33:01;;;;;;;4.30;3.60;;;11.40;21.30;;;;;;5028059;28;20420;-73
2021/05/06 06:35:26;;;;;;;5.50;3.67;;;11.60;21.90;;;;;;5028497;28;20491;-72
2021/05/06 06:37:52;;;;;;;4.10;3.80;;;11.60;21.20;;;;;;5028196;28;20200;-71
2021/05/06 06:40:17;;;;;;;4.30;3.37;;;11.60;21.30;;;;;;5032598;28;20199;-71
2021/05/06 06:42:43;;;;;;;4.20;3.80;;;11.60;20.30;;;;;;5044143;28;20184;-72
2021/05/06 06:45:09;;;;;;;10.00;3.70;;;11.60;21.00;;;;;;5041054;28;20281;-72
2021/05/06 06:47:34;;;;;;;6.50;3.30;;;11.70;21.90;;;;;;5033905;28;20185;-72
2021/05/06 06:50:00;;;;;;;4.67;3.97;;;11.60;21.40;;;;;;5028338;28;20465;-72
2021/05/06 06:52:25;;;;;;;4.67;4.23;;;11.70;20.50;;;;;;5050572;28;20604;-73
2021/05/06 06:54:51;;;;;;;4.20;3.90;;;11.70;19.50;;;;;;5051592;28;20194;-70
2021/05/06 06:57:16;;;;;;;4.90;3.33;;;11.80;20.30;;;;;;5052015;28;20198;-71
2021/05/06 06:59:42;;;;;;;6.10;4.17;;;11.80;19.10;;;;;;5052077;28;20338;-71
2021/05/06 07:02:07;;;;;;;3.77;3.33;;;11.80;20.50;;;;;;5051707;28;20260;-70
2021/05/06 07:04:33;;;;;;;4.13;3.77;;;11.70;19.80;;;;;;5053778;28;20224;-71
2021/05/06 07:06:59;;;;;;;4.47;4.07;;;11.60;19.60;;;;;;5056207;28;20243;-73
2021/05/06 07:09:24;;;;;;;6.10;4.67;;;11.60;19.40;;;;;;5053279;28;20208;-71
2021/05/06 07:11:50;;;;;;;4.13;3.73;;;11.60;19.40;;;;;;5055977;28;20185;-73
2021/05/06 07:14:16;;;;;;;7.30;4.50;;;11.80;20.80;;;;;;5056270;28;20532;-73
2021/05/06 07:16:41;;;;;;;4.57;4.17;;;11.90;20.50;;;;;;5057010;28;20429;-72
2021/05/06 07:19:07;;;;;;;5.20;4.53;;;12.10;19.80;;;;;;5057242;28;20722;-72
2021/05/06 07:21:33;;;;;;;5.10;4.60;;;12.30;17.10;;;;;;5055654;28;20190;-72
2021/05/06 07:23:58;;;;;;;5.03;4.47;;;12.50;17.60;;;;;;5057194;28;20213;-72
2021/05/06 07:26:25;;;;;;;4.57;4.17;;;12.70;17.70;;;;;;5055164;28;20431;-74
2021/05/06 07:28:53;;;;;;;7.30;5.07;;;12.80;18.30;;;;;;5053942;28;20214;-72
2021/05/06 07:31:19;;;;;;;7.10;4.73;;;13.20;17.40;;;;;;5058758;28;20484;-74
2021/05/06 07:33:49;;;;;;;5.90;5.50;;;13.30;16.30;;;;;;5058031;28;21100;-74
2021/05/06 07:36:17;;;;;;;6.80;5.33;;;13.40;15.60;;;;;;5054681;28;20439;-74
2021/05/06 07:38:42;;;;;;;10.03;5.70;;;13.30;15.70;;;;;;5041265;28;20769;-73
2021/05/06 07:41:11;;;;;;;5.40;4.90;;;13.40;16.50;;;;;;5046460;28;20405;-74
2021/05/06 07:43:36;;;;;;;5.60;5.20;;;13.50;16.50;;;;;;5063348;28;20548;-73
2021/05/06 07:46:02;;;;;;;5.63;5.13;;;13.40;15.40;;;;;;5059910;28;20422;-73
2021/05/06 07:48:28;;;;;;;8.13;5.63;;;13.30;16.30;;;;;;5057546;28;20237;-72
2021/05/06 07:50:54;;;;;;;7.60;5.90;;;13.40;15.90;;;;;;5057254;28;20171;-73
2021/05/06 07:53:26;;;;;;;6.93;6.43;;;13.70;16.00;;;;;;5051414;28;20237;-74
2021/05/06 07:55:53;;;;;;;5.73;5.23;;;13.70;16.60;;;;;;5041173;28;20419;-73
2021/05/06 07:58:20;;;;;;;6.20;5.80;;;13.60;14.80;;;;;;5042213;28;20419;-73
2021/05/06 08:00:46;;;;;;;5.50;5.20;;;13.50;13.70;;;;;;5039287;28;20429;-73
2021/05/06 08:03:12;;;;;;;5.97;5.57;;;13.20;15.50;;;;;;5039429;28;20425;-72
2021/05/06 08:05:38;;;;;;;5.33;4.87;;;12.80;16.80;;;;;;5051501;28;20952;-73
2021/05/06 08:08:05;;;;;;;6.80;6.30;;;12.50;18.30;;;;;;5055631;28;20925;-73
2021/05/06 08:10:31;;;;;;;5.93;5.33;;;12.20;18.20;;;;;;5055302;28;20415;-72
2021/05/06 08:13:02;;;;;;;6.17;5.57;;;11.90;18.70;;;;;;5043675;28;20842;-71
2021/05/06 08:15:33;;;;;;;5.50;5.10;;;11.70;19.50;;;;;;5037111;28;20462;-75
2021/05/06 08:17:59;;;;;;;5.37;4.93;;;11.50;19.00;;;;;;5054634;28;20422;-72
2021/05/06 08:20:25;;;;;;;5.20;4.90;;;11.40;19.20;;;;;;5034144;28;20412;-72
2021/05/06 08:22:50;;;;;;;4.83;4.43;;;11.40;19.30;;;;;;5050318;28;20185;-71
2021/05/06 08:25:17;;;;;;;5.00;4.33;;;11.20;20.30;;;;;;5042293;28;20214;-72
2021/05/06 08:27:43;;;;;;;6.40;4.10;;;11.00;21.50;;;;;;5054268;28;20182;-72
2021/05/06 08:30:11;;;;;;;3.90;3.60;;;10.90;21.30;;;;;;5053985;28;20522;-70
2021/05/06 08:32:37;;;;;;;3.93;3.63;;;10.90;22.50;;;;;;5049522;28;20171;-72
2021/05/06 08:35:04;;;;;;;5.70;3.87;;;10.90;22.10;;;;;;5054237;28;20428;-72
2021/05/06 08:37:29;;;;;;;8.10;4.90;;;10.90;22.70;;;;;;5053323;28;20473;-72
2021/05/06 08:39:55;;;;;;;6.80;4.33;;;10.90;21.30;;;;;;5052904;28;20957;-72
2021/05/06 08:42:21;;;;;;;8.13;4.83;;;10.80;21.40;;;;;;5041836;28;20273;-73
2021/05/06 08:44:46;;;;;;;4.87;4.47;;;10.80;20.90;;;;;;5057665;23;20235;-71
2021/05/06 08:47:21;;;;;;;3.80;3.60;;;10.80;21.10;;;;;;5051834;28;20179;-71
2021/05/06 08:49:47;;;;;;;5.67;3.97;;;10.80;22.20;;;;;;5034511;28;20674;-71
2021/05/06 08:52:19;;;;;;;5.00;3.80;;;10.90;22.70;;;;;;5043931;28;20507;-72
2021/05/06 08:54:46;;;;;;;4.80;3.80;;;10.90;22.70;;;;;;5063917;28;20434;-72
2021/05/06 08:57:13;;;;;;;4.03;3.50;;;10.90;23.40;;;;;;5072350;28;20937;-72
2021/05/06 08:59:38;;;;;;;6.47;3.67;;;10.90;23.20;;;;;;5071866;28;20427;-72
2021/05/06 09:02:04;;;;;;;3.50;3.20;;;10.80;23.60;;;;;;5063290;28;20425;-71
2021/05/06 09:04:31;;;;;;;3.70;2.90;;;10.80;24.50;;;;;;5053370;28;20217;-72
2021/05/06 09:07:02;;;;;;;3.33;3.03;;;10.70;24.80;;;;;;5049492;28;20184;-72
2021/05/06 09:09:32;;;;;;;2.57;2.37;;;10.50;25.80;;;;;;5031347;28;20466;-72
2021/05/06 09:12:03;;;;;;;2.80;2.57;;;10.40;26.60;;;;;;5047167;28;20425;-71
2021/05/06 09:14:40;;;;;;;2.40;2.03;;;10.30;27.50;;;;;;5060659;28;20470;-72
2021/05/06 09:17:27;;;;;;;3.53;2.17;;;10.30;28.50;;;;;;5057869;28;20433;-71
2021/05/06 09:19:56;;;;;;;6.40;3.10;;;10.20;29.10;;;;;;5050511;28;20472;-71
2021/05/06 09:22:36;;;;;;;3.40;3.10;;;10.20;28.80;;;;;;5051504;28;20417;-72
2021/05/06 09:25:34;;;;;;;3.07;2.53;;;10.20;28.60;;;;;;5054374;28;20452;-71
2021/05/06 09:28:14;;;;;;;8.23;3.83;;;10.30;29.00;;;;;;5053825;28;20852;-71
2021/05/06 09:30:48;;;;;;;3.20;2.77;;;10.30;29.60;;;;;;5049516;28;20941;-73
2021/05/06 09:33:14;;;;;;;3.57;1.97;;;10.30;30.60;;;;;;5064061;28;20504;-70
2021/05/06 09:35:43;;;;;;;2.87;2.23;;;10.30;29.90;;;;;;5064085;28;21010;-73
2021/05/06 09:38:29;;;;;;;4.20;2.60;;;10.40;30.00;;;;;;5051922;28;20406;-71
2021/05/06 09:40:58;;;;;;;2.90;2.60;;;10.50;30.00;;;;;;5051321;28;20974;-73
2021/05/06 09:43:29;;;;;;;3.90;2.50;;;10.60;30.00;;;;;;5051430;28;20824;-71
2021/05/06 09:45:56;;;;;;;4.57;3.13;;;10.60;29.70;;;;;;5055530;28;20437;-72
2021/05/06 09:48:23;;;;;;;4.67;3.07;;;10.70;29.10;;;;;;5049964;28;20518;-72
2021/05/06 09:50:58;;;;;;;4.60;3.10;;;10.60;29.20;;;;;;5058914;28;20484;-73
2021/05/06 09:53:25;;;;;;;2.73;2.40;;;10.50;29.10;;;;;;5041020;28;20415;-73
2021/05/06 09:55:55;;;;;;;2.70;2.40;;;10.50;29.10;;;;;;5052108;28;20434;-73
2021/05/06 09:58:23;;;;;;;2.40;2.03;;;10.50;29.00;;;;;;5061894;28;20949;-74
2021/05/06 10:00:49;;;;;;;3.50;2.90;;;10.40;29.00;;;;;;5060635;28;20425;-71
2021/05/06 10:03:17;;;;;;;4.70;3.03;;;10.40;28.90;;;;;;5050940;28;20464;-73
2021/05/06 10:05:45;;;;;;;3.03;2.20;;;10.50;29.20;;;;;;5032363;28;20442;-72
2021/05/06 10:08:12;;;;;;;2.90;2.20;;;10.50;29.60;;;;;;5044136;28;20441;-73
2021/05/06 10:10:38;;;;;;;3.57;2.00;;;10.50;30.60;;;;;;5051643;28;20791;-72
2021/05/06 10:13:07;;;;;;;2.90;2.10;;;10.60;30.20;;;;;;5050585;28;20425;-71
2021/05/06 10:15:33;;;;;;;6.30;2.33;;;10.60;30.70;;;;;;5055542;28;20423;-72
2021/05/06 10:17:58;;;;;;;4.00;2.20;;;10.50;30.40;;;;;;5053239;28;20427;-72
2021/05/06 10:20:26;;;;;;;2.90;2.20;;;10.50;31.40;;;;;;5050614;28;20434;-72
2021/05/06 10:22:53;;;;;;;2.90;2.47;;;10.60;31.50;;;;;;5050009;28;20185;-72
2021/05/06 10:25:20;;;;;;;3.07;2.50;;;10.60;31.20;;;;;;5063703;28;20453;-73
2021/05/06 10:27:47;;;;;;;4.70;2.30;;;10.50;30.40;;;;;;5055904;28;20429;-73
2021/05/06 10:30:13;;;;;;;3.30;2.30;;;10.40;31.30;;;;;;5048935;28;20550;-72
2021/05/06 10:32:41;;;;;;;2.80;2.13;;;10.40;32.00;;;;;;5050161;28;20456;-73
2021/05/06 10:35:13;;;;;;;2.50;2.07;;;10.40;31.30;;;;;;5048680;28;20445;-72
2021/05/06 10:37:42;;;;;;;2.73;1.90;;;10.30;31.20;;;;;;5050331;28;20426;-72
2021/05/06 10:40:20;;;;;;;2.30;1.90;;;10.30;33.40;;;;;;5055213;28;20875;-73
2021/05/06 10:42:46;;;;;;;2.60;2.40;;;10.40;32.50;;;;;;5071204;28;20507;-73
2021/05/06 10:45:12;;;;;;;3.93;2.10;;;10.60;31.50;;;;;;5067665;28;20464;-73
2021/05/06 10:47:48;;;;;;;3.67;2.20;;;10.70;31.20;;;;;;5051684;28;20422;-73
2021/05/06 10:50:23;;;;;;;3.20;2.13;;;10.90;30.40;;;;;;5055310;28;20214;-74
2021/05/06 10:52:54;;;;;;;3.17;2.70;;;10.90;29.90;;;;;;5071427;28;20780;-73
2021/05/06 10:55:49;;;;;;;2.17;1.80;;;11.00;29.70;;;;;;5071404;28;20485;-73
2021/05/06 10:58:27;;;;;;;2.87;2.20;;;11.10;29.40;;;;;;5056348;28;20999;-72
2021/05/06 11:01:10;;;;;;;2.50;2.00;;;11.30;29.90;;;;;;5049607;28;20416;-74
2021/05/06 11:03:37;;;;;;;3.13;2.20;;;11.40;28.50;;;;;;5044663;28;20432;-73
2021/05/06 11:06:03;;;;;;;3.10;2.10;;;11.60;28.80;;;;;;5066391;28;20533;-72
2021/05/06 11:08:36;;;;;;;2.53;2.00;;;11.60;27.80;;;;;;5069755;28;20431;-72
2021/05/06 11:11:04;;;;;;;2.40;2.13;;;11.60;27.80;;;;;;5069522;28;20431;-72
2021/05/06 11:14:01;;;;;;;2.87;2.67;;;11.50;27.80;;;;;;5069671;28;20445;-72
2021/05/06 11:16:27;;;;;;;2.53;2.33;;;11.60;27.90;;;;;;5071305;28;20455;-72
2021/05/06 11:18:55;;;;;;;2.90;2.50;;;11.70;27.90;;;;;;5070034;28;20470;-72
2021/05/06 11:21:29;;;;;;;2.90;2.70;;;11.80;27.60;;;;;;5056534;28;20178;-73
2021/05/06 11:24:13;;;;;;;2.67;2.47;;;12.00;26.40;;;;;;5049890;28;20530;-72
2021/05/06 11:27:12;;;;;;;3.93;2.70;;;12.20;26.10;;;;;;5051403;28;20512;-72
2021/05/06 11:29:39;;;;;;;2.60;2.40;;;12.30;26.20;;;;;;5049677;28;20471;-72
2021/05/06 11:32:06;;;;;;;5.57;3.10;;;12.30;26.00;;;;;;5071398;28;20779;-72
2021/05/06 11:34:35;;;;;;;2.80;2.20;;;12.10;25.50;;;;;;5070901;28;20452;-72
2021/05/06 11:37:15;;;;;;;4.43;2.30;;;12.00;26.90;;;;;;5071795;28;20415;-72
2021/05/06 11:40:08;;;;;;;3.50;2.90;;;11.90;27.50;;;;;;5069405;28;20450;-72
2021/05/06 11:42:39;;;;;;;2.93;2.73;;;11.80;27.10;;;;;;5051406;28;20427;-72
2021/05/06 11:45:12;;;;;;;2.80;2.60;;;11.70;27.30;;;;;;5043688;28;20576;-72
2021/05/06 11:47:39;;;;;;;2.53;2.33;;;11.50;27.30;;;;;;5042148;28;20403;-71
2021/05/06 11:50:24;;;;;;;3.23;2.20;;;11.40;27.70;;;;;;5054287;28;20449;-72
2021/05/06 11:52:50;;;;;;;2.77;1.63;;;11.30;27.60;;;;;;5031293;28;20410;-73
2021/05/06 11:55:30;;;;;;;8.10;3.03;;;11.30;28.00;;;;;;5046103;28;20441;-72
2021/05/06 11:57:56;;;;;;;5.30;2.50;;;11.20;27.40;;;;;;5030981;28;20426;-72
2021/05/06 12:00:29;;;;;;;2.00;1.77;;;11.20;28.00;;;;;;5036873;28;20788;-72
2021/05/06 12:03:03;;;;;;;3.27;2.10;;;11.20;28.70;;;;;;5053627;28;20425;-72
2021/05/06 12:05:51;;;;;;;2.77;2.53;;;11.10;29.10;;;;;;5054802;28;20456;-72
2021/05/06 12:08:18;;;;;;;3.73;2.00;;;11.10;29.40;;;;;;5051289;28;20406;-72
2021/05/06 12:10:43;;;;;;;3.63;2.53;;;11.20;29.50;;;;;;5067819;28;20422;-72
2021/05/06 12:13:10;;;;;;;2.53;2.30;;;11.40;29.60;;;;;;5074139;28;20968;-72
2021/05/06 12:15:36;;;;;;;2.53;2.33;;;11.60;29.10;;;;;;5070315;28;20204;-72
2021/05/06 12:18:22;;;;;;;2.40;2.13;;;11.60;27.90;;;;;;5071893;28;20415;-72
2021/05/06 12:20:53;;;;;;;2.60;2.40;;;11.70;27.90;;;;;;5070318;28;20414;-73
2021/05/06 12:23:20;;;;;;;3.43;3.13;;;11.80;28.00;;;;;;5069366;28;20827;-72
2021/05/06 12:25:45;;;;;;;3.30;3.00;;;11.90;28.00;;;;;;5054477;28;20483;-72
2021/05/06 12:28:11;;;;;;;3.50;3.20;;;11.90;27.80;;;;;;5054979;28;20421;-72
2021/05/06 12:30:36;;;;;;;2.53;2.33;;;12.00;28.10;;;;;;5055094;28;20206;-72
2021/05/06 12:33:02;;;;;;;2.40;2.20;;;12.00;27.70;;;;;;5072033;28;20167;-72
2021/05/06 12:35:28;;;;;;;11.00;3.10;;;12.00;27.30;;;;;;5057042;28;20197;-72
2021/05/06 12:37:54;;;;;;;4.50;2.13;;;11.90;28.10;;;;;;5062852;28;20701;-71
2021/05/06 12:40:21;;;;;;;4.07;2.60;;;11.90;28.80;;;;;;5069287;28;20174;-71
2021/05/06 12:42:46;;;;;;;2.73;2.30;;;11.90;29.70;;;;;;5071778;28;20412;-72
2021/05/06 12:45:16;;;;;;;3.00;2.67;;;11.80;29.00;;;;;;5067385;28;20471;-71
2021/05/06 12:47:51;;;;;;;3.33;2.50;;;11.80;29.00;;;;;;5066045;28;20175;-71
2021/05/06 12:50:22;;;;;;;2.50;2.00;;;11.80;29.60;;;;;;5066621;28;20990;-71
2021/05/06 12:52:53;;;;;;;2.27;2.07;;;11.70;31.00;;;;;;5067210;28;20394;-71
2021/05/06 12:55:22;;;;;;;3.33;1.90;;;11.50;31.30;;;;;;5066618;28;20436;-71
2021/05/06 12:58:06;;;;;;;3.90;3.37;;;11.30;32.10;;;;;;5066333;28;20445;-71
2021/05/06 13:00:34;;;;;;;2.93;2.53;;;11.20;32.30;;;;;;5062224;28;20459;-71
2021/05/06 13:03:05;;;;;;;2.90;2.50;;;11.20;32.90;;;;;;5063220;28;20424;-70
2021/05/06 13:05:43;;;;;;;5.80;2.80;;;11.10;33.60;;;;;;5065971;28;20483;-70
2021/05/06 13:08:08;;;;;;;2.37;2.13;;;11.10;34.60;;;;;;5064460;28;20422;-71
2021/05/06 13:10:41;;;;;;;3.47;2.50;;;11.00;34.60;;;;;;5069919;28;20801;-72
2021/05/06 13:13:09;;;;;;;2.30;1.90;;;11.00;34.50;;;;;;5080638;28;20258;-71
2021/05/06 13:15:52;;;;;;;3.03;1.97;;;11.00;35.80;;;;;;5084794;28;20801;-70
2021/05/06 13:18:18;;;;;;;4.30;1.97;;;11.00;35.70;;;;;;5086080;28;20414;-71
2021/05/06 13:20:45;;;;;;;3.77;1.90;;;11.00;34.50;;;;;;5079458;28;20419;-70
2021/05/06 13:23:14;;;;;;;1.60;1.20;;;11.00;34.30;;;;;;5062905;28;20487;-71
2021/05/06 13:25:42;;;;;;;1.50;1.17;;;10.90;34.70;;;;;;5063935;28;20457;-71
2021/05/06 13:28:09;;;;;;;2.00;1.40;;;10.90;34.70;;;;;;5063782;28;20422;-70
2021/05/06 13:30:34;;;;;;;2.00;1.43;;;10.90;35.20;;;;;;5060983;28;20470;-72
2021/05/06 13:33:09;;;;;;;1.73;0.93;;;10.90;34.90;;;;;;5052762;28;20430;-71
2021/05/06 13:35:34;;;;;;;1.70;1.33;;;10.90;35.40;;;;;;5051516;28;20203;-71
2021/05/06 13:38:00;;;;;;;1.80;1.50;;;10.80;33.90;;;;;;5050717;28;20438;-71
2021/05/06 13:40:26;;;;;;;1.87;1.20;;;10.60;35.00;;;;;;5052870;28;20284;-71
2021/05/06 13:42:51;;;;;;;1.30;1.03;;;10.60;35.20;;;;;;5055458;28;20433;-70
2021/05/06 13:45:17;;;;;;;1.83;1.30;;;10.50;35.60;;;;;;5040904;28;20249;-72
2021/05/06 13:47:47;;;;;;;3.60;1.40;;;10.50;36.60;;;;;;5052417;28;20244;-71
2021/05/06 13:50:14;;;;;;;1.50;1.10;;;10.50;36.60;;;;;;5032133;28;20303;-71
2021/05/06 13:52:40;;;;;;;1.87;1.17;;;10.50;35.10;;;;;;5053305;28;21041;-72
2021/05/06 13:55:06;;;;;;;1.60;1.20;;;10.40;33.50;;;;;;5063541;28;20525;-71
2021/05/06 13:57:34;;;;;;;1.33;0.90;;;10.30;34.20;;;;;;5048160;28;20184;-71
2021/05/06 13:59:59;;;;;;;1.83;1.30;;;10.40;36.50;;;;;;5046893;28;20530;-71
2021/05/06 14:02:27;;;;;;;2.30;2.03;;;10.40;35.80;;;;;;5047343;28;20430;-71
2021/05/06 14:04:53;;;;;;;4.30;3.90;;;10.40;36.60;;;;;;5047731;28;20212;-72
2021/05/06 14:07:19;;;;;;;2.13;1.70;;;10.40;37.60;;;;;;5048091;28;20506;-71
2021/05/06 14:09:44;;;;;;;2.73;1.57;;;10.40;36.50;;;;;;5046926;28;20640;-72
2021/05/06 14:12:10;;;;;;;2.30;1.97;;;10.20;35.60;;;;;;5062141;28;20648;-70
2021/05/06 14:14:35;;;;;;;5.50;2.60;;;10.10;36.20;;;;;;5057180;28;20212;-71
2021/05/06 14:17:01;;;;;;;4.27;2.90;;;10.10;35.50;;;;;;5052459;28;20239;-71
2021/05/06 14:19:27;;;;;;;1.67;1.40;;;10.20;36.30;;;;;;5050290;28;20619;-71
2021/05/06 14:21:54;;;;;;;2.33;1.87;;;10.10;37.00;;;;;;5049325;28;20527;-71
2021/05/06 14:24:20;;;;;;;2.03;1.20;;;10.00;36.30;;;;;;5049568;28;20211;-71
2021/05/06 14:26:48;;;;;;;1.87;1.47;;;10.00;37.50;;;;;;5051194;28;20419;-71
2021/05/06 14:29:15;;;;;;;1.50;1.00;;;10.00;37.30;;;;;;5049304;28;20206;-71
2021/05/06 14:31:41;;;;;;;2.03;1.40;;;9.90;38.50;;;;;;5052303;28;20886;-71
2021/05/06 14:34:06;;;;;;;1.90;1.20;;;9.90;39.40;;;;;;5069552;28;20451;-71
2021/05/06 14:36:32;;;;;;;1.60;1.30;;;9.90;38.80;;;;;;5071076;28;20213;-71
2021/05/06 14:39:01;;;;;;;1.70;1.20;;;9.80;39.40;;;;;;5070209;28;20170;-71
2021/05/06 14:41:28;;;;;;;1.73;0.90;;;9.90;40.30;;;;;;5031381;28;20190;-71
2021/05/06 14:43:53;;;;;;;2.70;1.43;;;9.80;39.80;;;;;;5042155;28;20487;-71
2021/05/06 14:46:22;;;;;;;1.30;0.87;;;9.80;40.30;;;;;;5069195;28;20527;-71
2021/05/06 14:48:48;;;;;;;1.67;1.20;;;9.80;40.90;;;;;;5070524;28;20202;-70
2021/05/06 14:51:14;;;;;;;1.60;0.90;;;9.80;39.80;;;;;;5070579;28;20752;-70
2021/05/06 14:53:40;;;;;;;1.60;0.90;;;9.80;40.30;;;;;;5070860;28;20409;-70
2021/05/06 14:56:05;;;;;;;1.40;0.90;;;9.70;39.90;;;;;;5063222;28;20233;-71
2021/05/06 14:58:31;;;;;;;3.27;1.20;;;9.80;41.00;;;;;;5048199;28;20182;-71
2021/05/06 15:00:57;;;;;;;2.57;1.20;;;9.80;42.00;;;;;;5032895;28;20200;-71
2021/05/06 15:03:23;;;;;;;2.00;0.80;;;9.90;40.60;;;;;;5043334;28;20181;-70
2021/05/06 15:05:49;;;;;;;2.17;1.13;;;9.80;40.80;;;;;;5050905;28;20492;-70
2021/05/06 15:08:16;;;;;;;3.00;1.00;;;9.90;40.60;;;;;;5026658;28;20255;-70
2021/05/06 15:10:42;;;;;;;2.00;1.53;;;9.80;40.90;;;;;;5027000;28;20687;-70
2021/05/06 15:13:08;;;;;;;1.40;1.13;;;9.90;41.70;;;;;;5030801;28;20509;-71
2021/05/06 15:15:34;;;;;;;2.43;1.37;;;9.90;41.10;;;;;;5066653;28;20205;-71
2021/05/06 15:18:00;;;;;;;1.40;1.00;;;9.90;41.60;;;;;;5050870;28;20198;-70
2021/05/06 15:20:26;;;;;;;2.33;1.80;;;9.70;40.50;;;;;;5026349;28;20422;-70
2021/05/06 15:22:51;;;;;;;1.70;1.37;;;9.70;42.00;;;;;;5026872;28;20946;-70
2021/05/06 15:25:17;;;;;;;5.33;1.90;;;9.70;42.00;;;;;;5037915;28;20971;-71
2021/05/06 15:27:44;;;;;;;2.97;2.20;;;9.80;42.00;;;;;;5066529;28;20191;-70
2021/05/06 15:30:13;;;;;;;1.40;0.87;;;9.80;41.70;;;;;;5066802;28;20206;-70
2021/05/06 15:32:39;;;;;;;1.43;0.70;;;9.90;40.80;;;;;;5066429;28;20425;-70
2021/05/06 15:35:05;;;;;;;1.83;1.17;;;9.90;41.30;;;;;;5066370;28;20938;-70
2021/05/06 15:37:31;;;;;;;2.20;1.53;;;9.80;41.50;;;;;;5060479;28;20460;-71
2021/05/06 15:39:57;;;;;;;2.10;1.90;;;9.80;40.80;;;;;;5046274;28;20463;-72
2021/05/06 15:42:22;;;;;;;3.33;1.60;;;9.80;41.70;;;;;;5045970;28;20434;-71
2021/05/06 15:44:48;;;;;;;8.57;1.70;;;9.90;42.10;;;;;;5046810;28;20214;-71
2021/05/06 15:47:14;;;;;;;1.50;1.20;;;9.90;42.20;;;;;;5046273;28;20195;-71
2021/05/06 15:49:40;;;;;;;5.00;1.23;;;9.90;42.20;;;;;;5045950;28;20211;-71
2021/05/06 15:52:09;;;;;;;2.10;1.90;;;9.80;40.70;;;;;;5046691;28;20264;-71
2021/05/06 15:54:36;;;;;;;2.13;1.30;;;9.90;41.40;;;;;;5045279;28;20433;-71
2021/05/06 15:57:03;;;;;;;2.43;1.40;;;9.90;40.80;;;;;;5049509;28;20918;-74
2021/05/06 15:59:29;;;;;;;1.70;1.40;;;9.80;41.40;;;;;;5046702;28;20433;-73
2021/05/06 16:01:54;;;;;;;2.17;1.50;;;9.90;41.80;;;;;;5047183;28;20975;-73
2021/05/06 16:04:29;;;;;;;1.80;1.60;;;9.90;41.40;;;;;;5049664;28;20211;-73
2021/05/06 16:06:55;;;;;;;2.17;1.47;;;9.90;42.20;;;;;;5049016;28;20551;-73